createdAt,value
2023-05-25T00:00:16.904Z,101689.63
2023-05-25T00:05:18.031Z,101831.84
2023-05-25T00:15:29.535Z,101672.47
2023-05-25T00:20:29.965Z,101835.03
2023-05-25T00:30:56.728Z,101779.91
2023-05-25T00:36:00.374Z,101801.69
2023-05-25T00:41:14.130Z,101818.06
2023-05-25T00:46:16.241Z,101844.53
2023-05-25T00:51:38.021Z,101818.72
2023-05-25T00:56:41.211Z,101700.25
2023-05-25T01:01:58.024Z,101773.22
2023-05-25T01:06:50.740Z,101798.38
2023-05-25T01:11:44.811Z,101676.53
2023-05-25T01:16:38.150Z,101869.47
2023-05-25T01:22:21.036Z,101870.63
2023-05-25T01:38:14.715Z,101849.41
2023-05-25T01:43:11.728Z,101834.75
2023-05-25T01:48:58.548Z,101805.97
2023-05-25T01:54:01.083Z,101748.34
2023-05-25T01:59:03.167Z,101862.34
2023-05-25T02:04:02.506Z,101654.53
2023-05-25T02:09:00.775Z,101663.19
2023-05-25T02:13:57.073Z,101857.59
2023-05-25T02:18:51.900Z,101758.47
2023-05-25T02:23:50.022Z,101852.25
2023-05-25T02:28:46.523Z,101850.59
2023-05-25T02:39:04.330Z,101786.75
2023-05-25T02:49:20.792Z,101862.38
2023-05-25T02:54:20.694Z,101750.03
2023-05-25T02:59:13.031Z,101773.38
2023-05-25T03:04:05.487Z,101837.06
2023-05-25T03:09:04.716Z,101873.16
2023-05-25T03:13:57.590Z,101667.72
2023-05-25T03:18:53.985Z,101630.59
2023-05-25T03:29:33.933Z,101739.72
2023-05-25T03:34:32.926Z,101888.53
2023-05-25T03:39:47.266Z,101892.78
2023-05-25T03:49:59.772Z,101901.25
2023-05-25T04:00:06.419Z,101906.84
2023-05-25T04:05:04.693Z,101812.88
2023-05-25T04:10:10.582Z,101840.47
2023-05-25T04:15:19.184Z,101724.56
2023-05-25T04:20:45.225Z,101933.66
2023-05-25T04:30:58.476Z,101855.91
2023-05-25T04:46:52.606Z,101774.59
2023-05-25T04:51:52.007Z,101874.84
2023-05-25T04:56:45.521Z,101963.66
2023-05-25T05:01:42.497Z,101941.84
2023-05-25T05:06:39.844Z,101936.38
2023-05-25T05:11:33.863Z,101919.78
2023-05-25T05:16:25.984Z,101924.03
2023-05-25T05:21:19.628Z,101933.63
2023-05-25T05:26:15.433Z,101948.41
2023-05-25T05:31:08.656Z,101952.25
2023-05-25T05:36:02.761Z,101955.94
2023-05-25T05:40:55.401Z,101956.22
2023-05-25T05:45:50.560Z,101957.25
2023-05-25T05:50:42.804Z,101957.84
2023-05-25T05:55:38.989Z,101966.63
2023-05-25T06:00:32.342Z,101939.47
2023-05-25T06:05:25.905Z,101945.53
2023-05-25T06:10:19.942Z,101975.69
2023-05-25T06:15:12.346Z,101939.84
2023-05-25T06:20:06.829Z,101991.75
2023-05-25T06:24:59.275Z,101969.25
2023-05-25T06:29:53.898Z,101969.44
2023-05-25T06:34:46.043Z,101962.94
2023-05-25T06:39:40.740Z,101948.53
2023-05-25T06:44:33.345Z,101954.16
2023-05-25T06:49:33.409Z,102007.31
2023-05-25T06:54:28.369Z,101984.66
2023-05-25T06:59:21.031Z,102001.97
2023-05-25T07:04:13.307Z,102012.13
2023-05-25T07:09:06.635Z,101982.00
2023-05-25T07:13:58.655Z,101994.16
2023-05-25T07:18:51.767Z,102015.97
2023-05-25T07:23:45.341Z,101984.41
2023-05-25T07:28:39.966Z,102010.28
2023-05-25T07:33:32.312Z,101991.66
2023-05-25T07:38:24.344Z,102003.50
2023-05-25T07:43:16.672Z,102001.44
2023-05-25T07:48:09.838Z,101938.75
2023-05-25T07:53:02.224Z,101968.88
2023-05-25T07:57:54.963Z,101997.50
2023-05-25T08:02:47.933Z,101972.47
2023-05-25T08:07:42.114Z,101946.19
2023-05-25T08:12:47.674Z,101957.25
2023-05-25T08:17:44.003Z,101968.44
2023-05-25T08:22:36.554Z,101996.66
2023-05-25T08:27:29.078Z,101965.59
2023-05-25T08:32:22.268Z,101999.19
2023-05-25T08:37:15.429Z,102016.34
2023-05-25T08:42:08.812Z,101968.06
2023-05-25T08:47:06.987Z,102001.34
2023-05-25T08:52:00.078Z,101911.44
2023-05-25T08:57:30.609Z,101970.69
2023-05-25T09:02:55.459Z,101938.31
2023-05-25T09:07:48.254Z,101993.88
2023-05-25T09:12:44.679Z,101923.34
2023-05-25T09:17:38.310Z,101980.75
2023-05-25T09:22:30.422Z,101961.06
2023-05-25T09:27:23.636Z,101991.28
2023-05-25T09:32:22.106Z,101997.25
2023-05-25T09:37:18.212Z,102013.22
2023-05-25T09:42:12.347Z,102003.00
2023-05-25T09:47:06.614Z,101993.94
2023-05-25T09:52:02.419Z,102006.28
2023-05-25T09:56:54.809Z,101930.25
2023-05-25T10:01:52.498Z,101994.84
2023-05-25T10:06:50.254Z,101956.25
2023-05-25T10:11:44.889Z,101980.84
2023-05-25T10:16:41.849Z,102018.47
2023-05-25T10:21:38.932Z,101985.50
2023-05-25T10:26:37.295Z,102021.22
2023-05-25T10:31:31.956Z,102015.94
2023-05-25T10:36:25.835Z,101998.13
2023-05-25T10:41:24.800Z,102011.44
2023-05-25T10:46:17.599Z,101989.53
2023-05-25T10:51:12.629Z,102008.66
2023-05-25T10:56:07.571Z,101944.56
2023-05-25T11:01:03.346Z,101985.66
2023-05-25T11:05:57.076Z,101993.38
2023-05-25T11:10:51.202Z,102011.38
2023-05-25T11:20:49.208Z,101976.25
2023-05-25T11:25:44.165Z,102014.91
2023-05-25T11:30:43.439Z,101980.38
2023-05-25T11:35:42.128Z,101951.88
2023-05-25T11:40:40.153Z,101960.03
2023-05-25T11:45:38.075Z,101997.16
2023-05-25T11:50:32.360Z,101939.06
2023-05-25T11:55:26.026Z,101994.72
2023-05-25T12:00:26.424Z,102004.22
2023-05-25T12:05:21.485Z,101872.50
2023-05-25T12:10:18.389Z,102014.25
2023-05-25T12:15:15.122Z,102001.94
2023-05-25T12:20:10.699Z,101996.44
2023-05-25T12:25:06.310Z,101960.09
2023-05-25T12:30:00.271Z,101983.19
2023-05-25T12:35:02.681Z,101984.16
2023-05-25T12:39:55.573Z,101998.28
2023-05-25T12:44:48.070Z,102002.06
2023-05-25T12:49:41.899Z,102019.00
2023-05-25T12:54:47.594Z,102024.56
2023-05-25T12:59:41.781Z,102028.84
2023-05-25T13:04:35.070Z,101980.03
2023-05-25T13:09:27.673Z,102020.84
2023-05-25T13:14:21.736Z,101998.16
2023-05-25T13:19:15.406Z,101982.53
2023-05-25T13:24:08.721Z,101977.25
2023-05-25T13:29:00.824Z,101999.53
2023-05-25T13:33:52.978Z,101994.00
2023-05-25T13:38:45.307Z,101979.44
2023-05-25T13:43:38.045Z,101984.28
2023-05-25T13:48:30.336Z,101939.44
2023-05-25T13:53:24.483Z,101975.16
2023-05-25T13:58:16.529Z,101948.94
2023-05-25T14:03:10.900Z,101963.84
2023-05-25T14:08:05.860Z,101958.56
2023-05-25T14:13:00.722Z,101983.63
2023-05-25T14:17:54.549Z,101917.50
2023-05-25T14:22:48.667Z,101959.75
2023-05-25T14:27:40.667Z,101939.88
2023-05-25T14:32:33.551Z,101963.25
2023-05-25T14:37:25.998Z,101944.81
2023-05-25T14:42:18.075Z,101950.16
2023-05-25T14:47:10.338Z,101967.44
2023-05-25T14:57:18.355Z,101951.41
2023-05-25T15:02:10.343Z,101982.09
2023-05-25T15:07:02.409Z,101954.44
2023-05-25T15:11:54.443Z,101922.31
2023-05-25T15:16:46.732Z,101894.81
2023-05-25T15:21:38.909Z,101972.84
2023-05-25T15:26:32.953Z,101966.06
2023-05-25T15:31:25.149Z,101949.69
2023-05-25T15:36:17.263Z,101941.44
2023-05-25T15:41:09.347Z,101956.28
2023-05-25T15:46:02.798Z,101898.50
2023-05-25T15:50:55.134Z,101956.97
2023-05-25T15:55:48.022Z,101932.78
2023-05-25T16:00:40.127Z,101947.06
2023-05-25T16:05:32.371Z,101953.09
2023-05-25T16:10:24.386Z,101933.66
2023-05-25T16:15:18.915Z,101919.28
2023-05-25T16:20:12.637Z,101907.19
2023-05-25T16:25:05.136Z,101924.16
2023-05-25T16:29:57.271Z,101944.72
2023-05-25T16:34:50.902Z,101903.59
2023-05-25T16:39:42.852Z,101922.41
2023-05-25T16:44:35.753Z,101933.41
2023-05-25T16:49:27.745Z,101934.09
2023-05-25T16:54:19.810Z,101926.13
2023-05-25T16:59:12.511Z,101941.72
2023-05-25T17:04:04.980Z,101932.13
2023-05-25T17:09:00.982Z,101945.44
2023-05-25T17:13:58.501Z,101953.31
2023-05-25T17:18:50.579Z,101902.34
2023-05-25T17:23:43.705Z,101941.63
2023-05-25T17:28:36.801Z,101926.19
2023-05-25T17:33:28.931Z,101907.44
2023-05-25T17:38:20.942Z,101894.25
2023-05-25T17:43:13.453Z,101927.47
2023-05-25T17:48:08.359Z,101933.00
2023-05-25T17:53:01.371Z,101932.09
2023-05-25T17:57:54.766Z,101917.06
2023-05-25T18:02:48.015Z,101917.63
2023-05-25T18:07:40.509Z,101955.34
2023-05-25T18:12:49.661Z,101885.84
2023-05-25T18:17:47.382Z,101963.34
2023-05-25T19:15:18.014Z,101984.28
2023-05-25T19:26:51.800Z,101925.34
2023-05-25T19:33:10.646Z,101990.34
2023-05-25T20:03:06.141Z,101990.78
2023-05-25T21:55:09.148Z,102053.06
2023-05-25T22:42:18.986Z,101928.34
2023-05-25T22:47:17.405Z,102095.56
2023-05-25T22:58:10.814Z,102060.22
2023-05-25T23:08:36.307Z,102101.78
2023-05-25T23:13:44.289Z,101841.00
2023-05-25T23:18:50.757Z,102031.56
2023-05-25T23:23:51.206Z,102059.22
2023-05-25T23:28:43.535Z,102095.03
2023-05-25T23:38:51.517Z,101974.63
2023-05-25T23:54:58.149Z,101925.06
